sensor_id;sensor_type;location;lat;lon;timestamp;P1;durP1;ratioP1;P2;durP2;ratioP2
7657;SDS011;8462;53.156;8.220;2023-08-07T00:01:43;7.20;;;3.67;;
7657;SDS011;8462;53.156;8.220;2023-08-07T00:04:10;7.07;;;3.47;;
7657;SDS011;8462;53.156;8.220;2023-08-07T00:06:36;8.20;;;3.23;;
7657;SDS011;8462;53.156;8.220;2023-08-07T00:09:03;4.77;;;3.53;;
7657;SDS011;8462;53.156;8.220;2023-08-07T00:11:30;4.77;;;3.47;;
7657;SDS011;8462;53.156;8.220;2023-08-07T00:13:57;5.10;;;3.20;;
7657;SDS011;8462;53.156;8.220;2023-08-07T00:16:26;4.50;;;3.30;;
7657;SDS011;8462;53.156;8.220;2023-08-07T00:18:54;6.93;;;3.30;;
7657;SDS011;8462;53.156;8.220;2023-08-07T00:21:23;3.50;;;2.90;;
7657;SDS011;8462;53.156;8.220;2023-08-07T00:23:50;3.90;;;3.50;;
7657;SDS011;8462;53.156;8.220;2023-08-07T00:26:17;6.23;;;3.47;;
7657;SDS011;8462;53.156;8.220;2023-08-07T00:28:44;6.30;;;3.13;;
7657;SDS011;8462;53.156;8.220;2023-08-07T00:31:12;5.63;;;3.63;;
7657;SDS011;8462;53.156;8.220;2023-08-07T00:33:39;4.20;;;2.93;;
7657;SDS011;8462;53.156;8.220;2023-08-07T00:36:08;5.10;;;3.10;;
7657;SDS011;8462;53.156;8.220;2023-08-07T00:38:35;5.97;;;3.70;;
7657;SDS011;8462;53.156;8.220;2023-08-07T00:41:02;4.87;;;3.03;;
7657;SDS011;8462;53.156;8.220;2023-08-07T00:43:30;7.20;;;3.93;;
7657;SDS011;8462;53.156;8.220;2023-08-07T00:45:57;6.07;;;3.20;;
7657;SDS011;8462;53.156;8.220;2023-08-07T00:48:24;5.30;;;3.43;;
7657;SDS011;8462;53.156;8.220;2023-08-07T00:50:51;9.57;;;5.77;;
7657;SDS011;8462;53.156;8.220;2023-08-07T00:53:21;8.90;;;4.60;;
7657;SDS011;8462;53.156;8.220;2023-08-07T00:55:48;5.17;;;3.53;;
7657;SDS011;8462;53.156;8.220;2023-08-07T00:58:15;5.00;;;3.23;;
7657;SDS011;8462;53.156;8.220;2023-08-07T01:00:42;5.27;;;3.30;;
7657;SDS011;8462;53.156;8.220;2023-08-07T01:03:09;5.83;;;4.00;;
7657;SDS011;8462;53.156;8.220;2023-08-07T01:05:39;4.07;;;3.30;;
7657;SDS011;8462;53.156;8.220;2023-08-07T01:08:06;5.97;;;3.53;;
7657;SDS011;8462;53.156;8.220;2023-08-07T01:10:38;8.10;;;3.77;;
7657;SDS011;8462;53.156;8.220;2023-08-07T01:13:14;8.03;;;3.77;;
7657;SDS011;8462;53.156;8.220;2023-08-07T01:15:44;5.43;;;3.60;;
7657;SDS011;8462;53.156;8.220;2023-08-07T01:18:15;6.17;;;3.90;;
7657;SDS011;8462;53.156;8.220;2023-08-07T01:20:42;6.60;;;3.80;;
7657;SDS011;8462;53.156;8.220;2023-08-07T01:23:11;8.27;;;3.63;;
7657;SDS011;8462;53.156;8.220;2023-08-07T01:25:37;6.87;;;4.00;;
7657;SDS011;8462;53.156;8.220;2023-08-07T01:28:06;4.70;;;3.57;;
7657;SDS011;8462;53.156;8.220;2023-08-07T01:30:41;6.60;;;3.80;;
7657;SDS011;8462;53.156;8.220;2023-08-07T01:33:14;8.23;;;3.60;;
7657;SDS011;8462;53.156;8.220;2023-08-07T01:35:58;7.00;;;3.93;;
7657;SDS011;8462;53.156;8.220;2023-08-07T01:38:29;7.60;;;3.50;;
7657;SDS011;8462;53.156;8.220;2023-08-07T01:40:57;7.67;;;3.77;;
7657;SDS011;8462;53.156;8.220;2023-08-07T01:43:26;5.17;;;3.30;;
7657;SDS011;8462;53.156;8.220;2023-08-07T01:45:53;5.97;;;3.77;;
7657;SDS011;8462;53.156;8.220;2023-08-07T01:48:20;5.70;;;3.43;;
7657;SDS011;8462;53.156;8.220;2023-08-07T01:50:47;5.63;;;3.53;;
7657;SDS011;8462;53.156;8.220;2023-08-07T01:53:14;5.50;;;3.43;;
7657;SDS011;8462;53.156;8.220;2023-08-07T01:55:42;5.90;;;3.33;;
7657;SDS011;8462;53.156;8.220;2023-08-07T01:58:09;5.90;;;3.30;;
7657;SDS011;8462;53.156;8.220;2023-08-07T02:00:36;7.30;;;3.47;;
7657;SDS011;8462;53.156;8.220;2023-08-07T02:03:03;5.60;;;3.73;;
7657;SDS011;8462;53.156;8.220;2023-08-07T02:05:30;6.07;;;3.70;;
7657;SDS011;8462;53.156;8.220;2023-08-07T02:07:57;5.87;;;3.63;;
7657;SDS011;8462;53.156;8.220;2023-08-07T02:10:23;6.57;;;3.90;;
7657;SDS011;8462;53.156;8.220;2023-08-07T02:12:52;6.13;;;4.00;;
7657;SDS011;8462;53.156;8.220;2023-08-07T02:15:18;6.17;;;3.50;;
7657;SDS011;8462;53.156;8.220;2023-08-07T02:17:50;6.97;;;3.90;;
7657;SDS011;8462;53.156;8.220;2023-08-07T02:20:16;6.80;;;4.20;;
7657;SDS011;8462;53.156;8.220;2023-08-07T02:22:43;7.50;;;4.13;;
7657;SDS011;8462;53.156;8.220;2023-08-07T02:25:10;5.03;;;3.50;;
7657;SDS011;8462;53.156;8.220;2023-08-07T02:27:37;9.57;;;5.70;;
7657;SDS011;8462;53.156;8.220;2023-08-07T02:30:06;8.37;;;4.57;;
7657;SDS011;8462;53.156;8.220;2023-08-07T02:32:33;10.07;;;4.10;;
7657;SDS011;8462;53.156;8.220;2023-08-07T02:35:00;4.13;;;3.57;;
7657;SDS011;8462;53.156;8.220;2023-08-07T02:37:27;6.33;;;3.97;;
7657;SDS011;8462;53.156;8.220;2023-08-07T02:39:54;6.57;;;4.00;;
7657;SDS011;8462;53.156;8.220;2023-08-07T02:42:21;6.40;;;3.50;;
7657;SDS011;8462;53.156;8.220;2023-08-07T02:44:48;4.50;;;2.90;;
7657;SDS011;8462;53.156;8.220;2023-08-07T02:47:17;5.93;;;2.87;;
7657;SDS011;8462;53.156;8.220;2023-08-07T02:49:44;8.23;;;3.17;;
7657;SDS011;8462;53.156;8.220;2023-08-07T02:52:11;12.20;;;8.33;;
7657;SDS011;8462;53.156;8.220;2023-08-07T02:54:38;4.30;;;3.10;;
7657;SDS011;8462;53.156;8.220;2023-08-07T02:57:05;3.17;;;2.57;;
7657;SDS011;8462;53.156;8.220;2023-08-07T02:59:32;4.00;;;2.90;;
7657;SDS011;8462;53.156;8.220;2023-08-07T03:01:58;4.70;;;3.47;;
7657;SDS011;8462;53.156;8.220;2023-08-07T03:04:28;4.83;;;3.50;;
7657;SDS011;8462;53.156;8.220;2023-08-07T03:06:55;7.60;;;3.10;;
7657;SDS011;8462;53.156;8.220;2023-08-07T03:09:21;4.23;;;3.37;;
7657;SDS011;8462;53.156;8.220;2023-08-07T03:11:48;4.63;;;3.47;;
7657;SDS011;8462;53.156;8.220;2023-08-07T03:14:16;5.40;;;3.17;;
7657;SDS011;8462;53.156;8.220;2023-08-07T03:16:43;5.17;;;3.53;;
7657;SDS011;8462;53.156;8.220;2023-08-07T03:19:11;5.50;;;3.13;;
7657;SDS011;8462;53.156;8.220;2023-08-07T03:21:39;7.80;;;4.07;;
7657;SDS011;8462;53.156;8.220;2023-08-07T03:24:06;7.40;;;4.00;;
7657;SDS011;8462;53.156;8.220;2023-08-07T03:26:33;8.70;;;4.40;;
7657;SDS011;8462;53.156;8.220;2023-08-07T03:29:00;7.70;;;4.20;;
7657;SDS011;8462;53.156;8.220;2023-08-07T03:31:27;4.70;;;3.47;;
7657;SDS011;8462;53.156;8.220;2023-08-07T03:33:55;5.80;;;3.80;;
7657;SDS011;8462;53.156;8.220;2023-08-07T03:36:23;5.63;;;3.40;;
7657;SDS011;8462;53.156;8.220;2023-08-07T03:38:51;5.80;;;3.53;;
7657;SDS011;8462;53.156;8.220;2023-08-07T03:41:18;6.37;;;3.50;;
7657;SDS011;8462;53.156;8.220;2023-08-07T03:43:47;6.37;;;3.20;;
7657;SDS011;8462;53.156;8.220;2023-08-07T03:46:14;4.17;;;3.07;;
7657;SDS011;8462;53.156;8.220;2023-08-07T03:48:41;5.07;;;3.27;;
7657;SDS011;8462;53.156;8.220;2023-08-07T03:51:08;3.70;;;2.70;;
7657;SDS011;8462;53.156;8.220;2023-08-07T03:53:43;6.13;;;3.10;;
7657;SDS011;8462;53.156;8.220;2023-08-07T03:56:11;4.37;;;2.90;;
7657;SDS011;8462;53.156;8.220;2023-08-07T03:58:38;3.70;;;2.50;;
7657;SDS011;8462;53.156;8.220;2023-08-07T04:01:05;2.90;;;2.47;;
7657;SDS011;8462;53.156;8.220;2023-08-07T04:03:32;4.80;;;2.20;;
7657;SDS011;8462;53.156;8.220;2023-08-07T04:06:00;4.60;;;2.40;;
7657;SDS011;8462;53.156;8.220;2023-08-07T04:08:27;2.83;;;2.20;;
7657;SDS011;8462;53.156;8.220;2023-08-07T04:10:57;3.43;;;2.10;;
7657;SDS011;8462;53.156;8.220;2023-08-07T04:13:27;2.60;;;2.10;;
7657;SDS011;8462;53.156;8.220;2023-08-07T04:15:54;2.70;;;1.90;;
7657;SDS011;8462;53.156;8.220;2023-08-07T04:18:21;4.33;;;1.90;;
7657;SDS011;8462;53.156;8.220;2023-08-07T04:20:49;2.70;;;1.90;;
7657;SDS011;8462;53.156;8.220;2023-08-07T04:23:21;6.23;;;2.47;;
7657;SDS011;8462;53.156;8.220;2023-08-07T04:25:48;3.43;;;2.23;;
7657;SDS011;8462;53.156;8.220;2023-08-07T04:28:16;2.47;;;1.53;;
7657;SDS011;8462;53.156;8.220;2023-08-07T04:30:44;3.20;;;1.60;;
7657;SDS011;8462;53.156;8.220;2023-08-07T04:33:15;2.77;;;1.67;;
7657;SDS011;8462;53.156;8.220;2023-08-07T04:35:42;4.70;;;1.90;;
7657;SDS011;8462;53.156;8.220;2023-08-07T04:38:08;3.60;;;1.93;;
7657;SDS011;8462;53.156;8.220;2023-08-07T04:40:35;4.07;;;1.90;;
7657;SDS011;8462;53.156;8.220;2023-08-07T04:43:04;2.87;;;1.90;;
7657;SDS011;8462;53.156;8.220;2023-08-07T04:45:32;2.10;;;1.43;;
7657;SDS011;8462;53.156;8.220;2023-08-07T04:48:00;3.57;;;1.70;;
7657;SDS011;8462;53.156;8.220;2023-08-07T04:50:27;2.90;;;1.57;;
7657;SDS011;8462;53.156;8.220;2023-08-07T04:52:53;4.13;;;1.67;;
7657;SDS011;8462;53.156;8.220;2023-08-07T04:55:20;4.40;;;1.53;;
7657;SDS011;8462;53.156;8.220;2023-08-07T04:57:47;5.63;;;1.70;;
7657;SDS011;8462;53.156;8.220;2023-08-07T05:00:16;3.63;;;1.60;;
7657;SDS011;8462;53.156;8.220;2023-08-07T05:02:43;5.67;;;1.70;;
7657;SDS011;8462;53.156;8.220;2023-08-07T05:05:12;2.67;;;1.63;;
7657;SDS011;8462;53.156;8.220;2023-08-07T05:07:39;3.47;;;1.70;;
7657;SDS011;8462;53.156;8.220;2023-08-07T05:10:09;2.83;;;1.87;;
7657;SDS011;8462;53.156;8.220;2023-08-07T05:12:36;4.43;;;1.83;;
7657;SDS011;8462;53.156;8.220;2023-08-07T05:15:03;4.10;;;1.70;;
7657;SDS011;8462;53.156;8.220;2023-08-07T05:17:31;5.73;;;1.90;;
7657;SDS011;8462;53.156;8.220;2023-08-07T05:19:58;2.53;;;1.63;;
7657;SDS011;8462;53.156;8.220;2023-08-07T05:22:32;4.27;;;1.77;;
7657;SDS011;8462;53.156;8.220;2023-08-07T05:24:59;4.57;;;2.00;;
7657;SDS011;8462;53.156;8.220;2023-08-07T05:27:26;2.83;;;2.00;;
7657;SDS011;8462;53.156;8.220;2023-08-07T05:29:55;3.13;;;1.90;;
7657;SDS011;8462;53.156;8.220;2023-08-07T05:32:22;3.03;;;1.70;;
7657;SDS011;8462;53.156;8.220;2023-08-07T05:34:49;6.43;;;2.47;;
7657;SDS011;8462;53.156;8.220;2023-08-07T05:37:16;2.27;;;1.77;;
7657;SDS011;8462;53.156;8.220;2023-08-07T05:39:45;4.60;;;1.73;;
7657;SDS011;8462;53.156;8.220;2023-08-07T05:42:12;3.83;;;1.83;;
7657;SDS011;8462;53.156;8.220;2023-08-07T05:44:41;4.20;;;1.70;;
7657;SDS011;8462;53.156;8.220;2023-08-07T05:47:08;3.53;;;1.97;;
7657;SDS011;8462;53.156;8.220;2023-08-07T05:49:35;2.13;;;1.83;;
7657;SDS011;8462;53.156;8.220;2023-08-07T05:52:03;3.17;;;1.63;;
7657;SDS011;8462;53.156;8.220;2023-08-07T05:54:31;2.93;;;1.87;;
7657;SDS011;8462;53.156;8.220;2023-08-07T05:56:59;2.93;;;1.90;;
7657;SDS011;8462;53.156;8.220;2023-08-07T05:59:26;2.93;;;1.40;;
7657;SDS011;8462;53.156;8.220;2023-08-07T06:01:54;6.73;;;2.13;;
7657;SDS011;8462;53.156;8.220;2023-08-07T06:04:20;6.93;;;2.03;;
7657;SDS011;8462;53.156;8.220;2023-08-07T06:06:48;4.33;;;1.93;;
7657;SDS011;8462;53.156;8.220;2023-08-07T06:09:14;2.97;;;1.73;;
7657;SDS011;8462;53.156;8.220;2023-08-07T06:11:41;5.77;;;1.90;;
7657;SDS011;8462;53.156;8.220;2023-08-07T06:14:09;4.23;;;1.53;;
7657;SDS011;8462;53.156;8.220;2023-08-07T06:16:37;4.33;;;1.47;;
7657;SDS011;8462;53.156;8.220;2023-08-07T06:19:04;2.33;;;1.40;;
7657;SDS011;8462;53.156;8.220;2023-08-07T06:21:34;4.07;;;1.60;;
7657;SDS011;8462;53.156;8.220;2023-08-07T06:24:01;3.37;;;1.70;;
7657;SDS011;8462;53.156;8.220;2023-08-07T06:26:28;3.70;;;1.67;;
7657;SDS011;8462;53.156;8.220;2023-08-07T06:28:55;5.33;;;1.63;;
7657;SDS011;8462;53.156;8.220;2023-08-07T06:31:23;7.57;;;1.83;;
7657;SDS011;8462;53.156;8.220;2023-08-07T06:33:50;4.30;;;2.10;;
7657;SDS011;8462;53.156;8.220;2023-08-07T06:36:17;5.00;;;1.60;;
7657;SDS011;8462;53.156;8.220;2023-08-07T06:38:44;6.20;;;1.70;;
7657;SDS011;8462;53.156;8.220;2023-08-07T06:41:12;5.90;;;1.77;;
7657;SDS011;8462;53.156;8.220;2023-08-07T06:43:40;9.53;;;2.70;;
7657;SDS011;8462;53.156;8.220;2023-08-07T06:46:06;6.80;;;2.17;;
7657;SDS011;8462;53.156;8.220;2023-08-07T06:48:35;5.53;;;2.07;;
7657;SDS011;8462;53.156;8.220;2023-08-07T06:51:02;6.93;;;2.63;;
7657;SDS011;8462;53.156;8.220;2023-08-07T06:53:29;10.27;;;2.30;;
7657;SDS011;8462;53.156;8.220;2023-08-07T06:55:56;6.47;;;2.10;;
7657;SDS011;8462;53.156;8.220;2023-08-07T06:58:23;6.90;;;2.40;;
7657;SDS011;8462;53.156;8.220;2023-08-07T07:00:50;6.43;;;2.50;;
7657;SDS011;8462;53.156;8.220;2023-08-07T07:03:17;4.27;;;1.90;;
7657;SDS011;8462;53.156;8.220;2023-08-07T07:05:45;6.30;;;2.57;;
7657;SDS011;8462;53.156;8.220;2023-08-07T07:08:12;7.17;;;2.50;;
7657;SDS011;8462;53.156;8.220;2023-08-07T07:10:39;5.50;;;2.87;;
7657;SDS011;8462;53.156;8.220;2023-08-07T07:13:06;6.73;;;2.20;;
7657;SDS011;8462;53.156;8.220;2023-08-07T07:15:36;5.17;;;2.97;;
7657;SDS011;8462;53.156;8.220;2023-08-07T07:18:03;6.37;;;2.30;;
7657;SDS011;8462;53.156;8.220;2023-08-07T07:20:30;7.87;;;2.83;;
7657;SDS011;8462;53.156;8.220;2023-08-07T07:22:59;6.78;;;2.67;;
7657;SDS011;8462;53.156;8.220;2023-08-07T07:25:26;6.38;;;1.92;;
7657;SDS011;8462;53.156;8.220;2023-08-07T07:27:52;3.30;;;2.20;;
7657;SDS011;8462;53.156;8.220;2023-08-07T07:30:23;3.67;;;1.90;;
7657;SDS011;8462;53.156;8.220;2023-08-07T07:32:50;8.45;;;2.50;;
7657;SDS011;8462;53.156;8.220;2023-08-07T07:35:17;5.50;;;2.35;;
7657;SDS011;8462;53.156;8.220;2023-08-07T07:37:44;8.68;;;2.05;;
7657;SDS011;8462;53.156;8.220;2023-08-07T07:40:13;5.93;;;2.03;;
7657;SDS011;8462;53.156;8.220;2023-08-07T07:42:40;6.13;;;2.57;;
7657;SDS011;8462;53.156;8.220;2023-08-07T07:45:07;6.80;;;2.13;;
7657;SDS011;8462;53.156;8.220;2023-08-07T07:47:34;5.27;;;2.30;;
7657;SDS011;8462;53.156;8.220;2023-08-07T07:50:06;8.20;;;2.33;;
7657;SDS011;8462;53.156;8.220;2023-08-07T07:52:35;6.33;;;2.30;;
7657;SDS011;8462;53.156;8.220;2023-08-07T07:55:04;5.10;;;2.20;;
7657;SDS011;8462;53.156;8.220;2023-08-07T07:57:35;8.57;;;2.20;;
7657;SDS011;8462;53.156;8.220;2023-08-07T08:00:03;6.47;;;2.37;;
7657;SDS011;8462;53.156;8.220;2023-08-07T08:02:37;6.07;;;2.00;;
7657;SDS011;8462;53.156;8.220;2023-08-07T08:05:04;5.17;;;1.60;;
7657;SDS011;8462;53.156;8.220;2023-08-07T08:07:31;8.63;;;2.70;;
7657;SDS011;8462;53.156;8.220;2023-08-07T08:10:00;5.70;;;2.17;;
7657;SDS011;8462;53.156;8.220;2023-08-07T08:12:27;6.57;;;2.10;;
7657;SDS011;8462;53.156;8.220;2023-08-07T08:14:58;5.20;;;1.70;;
7657;SDS011;8462;53.156;8.220;2023-08-07T08:17:25;6.80;;;1.73;;
7657;SDS011;8462;53.156;8.220;2023-08-07T08:19:52;5.07;;;1.80;;
7657;SDS011;8462;53.156;8.220;2023-08-07T08:22:19;10.07;;;2.50;;
7657;SDS011;8462;53.156;8.220;2023-08-07T08:24:46;7.90;;;1.80;;
7657;SDS011;8462;53.156;8.220;2023-08-07T08:27:13;2.73;;;1.47;;
7657;SDS011;8462;53.156;8.220;2023-08-07T08:29:42;7.00;;;1.87;;
7657;SDS011;8462;53.156;8.220;2023-08-07T08:32:11;8.10;;;1.90;;
7657;SDS011;8462;53.156;8.220;2023-08-07T08:34:39;4.20;;;1.57;;
7657;SDS011;8462;53.156;8.220;2023-08-07T08:37:09;6.17;;;1.60;;
7657;SDS011;8462;53.156;8.220;2023-08-07T08:39:36;11.37;;;2.47;;
7657;SDS011;8462;53.156;8.220;2023-08-07T08:42:04;11.00;;;2.40;;
7657;SDS011;8462;53.156;8.220;2023-08-07T08:44:31;3.60;;;1.60;;
7657;SDS011;8462;53.156;8.220;2023-08-07T08:47:03;6.63;;;2.10;;
7657;SDS011;8462;53.156;8.220;2023-08-07T08:49:35;5.50;;;1.83;;
7657;SDS011;8462;53.156;8.220;2023-08-07T08:52:07;5.97;;;1.53;;
7657;SDS011;8462;53.156;8.220;2023-08-07T08:54:35;6.10;;;1.53;;
7657;SDS011;8462;53.156;8.220;2023-08-07T08:57:03;10.73;;;3.00;;
7657;SDS011;8462;53.156;8.220;2023-08-07T08:59:32;4.20;;;2.00;;
7657;SDS011;8462;53.156;8.220;2023-08-07T09:02:00;6.57;;;1.93;;
7657;SDS011;8462;53.156;8.220;2023-08-07T09:04:27;7.57;;;2.30;;
7657;SDS011;8462;53.156;8.220;2023-08-07T09:06:55;7.80;;;2.50;;
7657;SDS011;8462;53.156;8.220;2023-08-07T09:09:24;7.67;;;1.83;;
7657;SDS011;8462;53.156;8.220;2023-08-07T09:11:51;11.90;;;2.57;;
7657;SDS011;8462;53.156;8.220;2023-08-07T09:14:20;3.00;;;1.73;;
7657;SDS011;8462;53.156;8.220;2023-08-07T09:16:52;7.07;;;1.70;;
7657;SDS011;8462;53.156;8.220;2023-08-07T09:19:20;7.63;;;2.10;;
7657;SDS011;8462;53.156;8.220;2023-08-07T09:21:47;8.80;;;1.67;;
7657;SDS011;8462;53.156;8.220;2023-08-07T09:24:15;6.37;;;1.93;;
7657;SDS011;8462;53.156;8.220;2023-08-07T09:26:44;3.33;;;1.87;;
7657;SDS011;8462;53.156;8.220;2023-08-07T09:29:10;6.70;;;1.60;;
7657;SDS011;8462;53.156;8.220;2023-08-07T09:31:39;3.60;;;1.83;;
7657;SDS011;8462;53.156;8.220;2023-08-07T09:34:09;8.53;;;2.20;;
7657;SDS011;8462;53.156;8.220;2023-08-07T09:36:38;4.10;;;2.00;;
7657;SDS011;8462;53.156;8.220;2023-08-07T09:39:07;5.53;;;2.23;;
7657;SDS011;8462;53.156;8.220;2023-08-07T09:41:37;4.33;;;2.10;;
7657;SDS011;8462;53.156;8.220;2023-08-07T09:44:06;3.27;;;1.70;;
7657;SDS011;8462;53.156;8.220;2023-08-07T09:46:40;5.87;;;2.23;;
7657;SDS011;8462;53.156;8.220;2023-08-07T09:49:08;4.97;;;2.07;;
7657;SDS011;8462;53.156;8.220;2023-08-07T09:51:40;3.83;;;1.73;;
7657;SDS011;8462;53.156;8.220;2023-08-07T09:54:09;7.37;;;1.70;;
7657;SDS011;8462;53.156;8.220;2023-08-07T09:56:38;3.97;;;1.30;;
7657;SDS011;8462;53.156;8.220;2023-08-07T09:59:07;2.23;;;1.37;;
7657;SDS011;8462;53.156;8.220;2023-08-07T10:01:36;3.40;;;1.30;;
7657;SDS011;8462;53.156;8.220;2023-08-07T10:04:04;3.50;;;1.90;;
7657;SDS011;8462;53.156;8.220;2023-08-07T10:06:33;3.33;;;1.63;;
7657;SDS011;8462;53.156;8.220;2023-08-07T10:09:01;7.33;;;1.80;;
7657;SDS011;8462;53.156;8.220;2023-08-07T10:11:30;2.80;;;1.33;;
7657;SDS011;8462;53.156;8.220;2023-08-07T10:13:58;1.53;;;1.10;;
7657;SDS011;8462;53.156;8.220;2023-08-07T10:16:26;2.20;;;1.10;;
7657;SDS011;8462;53.156;8.220;2023-08-07T10:18:54;3.83;;;1.30;;
7657;SDS011;8462;53.156;8.220;2023-08-07T10:21:21;3.47;;;2.27;;
7657;SDS011;8462;53.156;8.220;2023-08-07T10:23:50;3.33;;;1.37;;
7657;SDS011;8462;53.156;8.220;2023-08-07T10:26:19;2.63;;;1.20;;
7657;SDS011;8462;53.156;8.220;2023-08-07T10:28:47;3.10;;;1.60;;
7657;SDS011;8462;53.156;8.220;2023-08-07T10:31:22;4.03;;;1.47;;
7657;SDS011;8462;53.156;8.220;2023-08-07T10:33:50;3.13;;;1.80;;
7657;SDS011;8462;53.156;8.220;2023-08-07T10:36:18;2.07;;;1.63;;
7657;SDS011;8462;53.156;8.220;2023-08-07T10:38:48;4.03;;;1.90;;
7657;SDS011;8462;53.156;8.220;2023-08-07T10:41:16;5.77;;;1.90;;
7657;SDS011;8462;53.156;8.220;2023-08-07T10:43:45;6.43;;;1.73;;
7657;SDS011;8462;53.156;8.220;2023-08-07T10:46:14;4.87;;;1.67;;
7657;SDS011;8462;53.156;8.220;2023-08-07T10:48:43;5.60;;;1.90;;
7657;SDS011;8462;53.156;8.220;2023-08-07T10:51:12;8.83;;;3.40;;
7657;SDS011;8462;53.156;8.220;2023-08-07T10:53:40;6.00;;;1.80;;
7657;SDS011;8462;53.156;8.220;2023-08-07T10:56:10;8.00;;;2.27;;
7657;SDS011;8462;53.156;8.220;2023-08-07T10:58:41;7.27;;;2.73;;
7657;SDS011;8462;53.156;8.220;2023-08-07T11:01:21;3.97;;;1.97;;
7657;SDS011;8462;53.156;8.220;2023-08-07T11:04:05;5.50;;;2.10;;
7657;SDS011;8462;53.156;8.220;2023-08-07T11:06:34;8.63;;;2.40;;
7657;SDS011;8462;53.156;8.220;2023-08-07T11:09:03;4.23;;;1.70;;
7657;SDS011;8462;53.156;8.220;2023-08-07T11:11:34;7.77;;;2.10;;
7657;SDS011;8462;53.156;8.220;2023-08-07T11:14:06;7.13;;;2.00;;
7657;SDS011;8462;53.156;8.220;2023-08-07T11:16:33;5.30;;;1.70;;
7657;SDS011;8462;53.156;8.220;2023-08-07T11:19:00;3.20;;;1.70;;
7657;SDS011;8462;53.156;8.220;2023-08-07T11:21:29;5.63;;;2.17;;
7657;SDS011;8462;53.156;8.220;2023-08-07T11:23:57;6.33;;;2.30;;
7657;SDS011;8462;53.156;8.220;2023-08-07T11:26:24;5.23;;;1.70;;
7657;SDS011;8462;53.156;8.220;2023-08-07T11:28:53;9.70;;;2.13;;
7657;SDS011;8462;53.156;8.220;2023-08-07T11:31:20;10.83;;;1.80;;
7657;SDS011;8462;53.156;8.220;2023-08-07T11:33:50;7.77;;;1.97;;
7657;SDS011;8462;53.156;8.220;2023-08-07T11:36:17;7.13;;;2.20;;
7657;SDS011;8462;53.156;8.220;2023-08-07T11:38:45;5.37;;;2.17;;
7657;SDS011;8462;53.156;8.220;2023-08-07T11:41:14;7.53;;;1.63;;
7657;SDS011;8462;53.156;8.220;2023-08-07T11:43:41;8.17;;;1.80;;
7657;SDS011;8462;53.156;8.220;2023-08-07T11:46:09;3.10;;;1.80;;
7657;SDS011;8462;53.156;8.220;2023-08-07T11:48:37;6.00;;;2.17;;
7657;SDS011;8462;53.156;8.220;2023-08-07T11:51:05;5.07;;;1.60;;
7657;SDS011;8462;53.156;8.220;2023-08-07T11:53:33;5.63;;;2.00;;
7657;SDS011;8462;53.156;8.220;2023-08-07T11:56:04;4.30;;;1.60;;
7657;SDS011;8462;53.156;8.220;2023-08-07T11:58:33;3.47;;;1.40;;
7657;SDS011;8462;53.156;8.220;2023-08-07T12:01:05;5.27;;;1.63;;
7657;SDS011;8462;53.156;8.220;2023-08-07T12:03:33;2.80;;;1.37;;
7657;SDS011;8462;53.156;8.220;2023-08-07T12:06:04;3.10;;;1.27;;
7657;SDS011;8462;53.156;8.220;2023-08-07T12:08:32;5.43;;;1.50;;
7657;SDS011;8462;53.156;8.220;2023-08-07T12:11:01;3.17;;;1.70;;
7657;SDS011;8462;53.156;8.220;2023-08-07T12:13:30;2.67;;;1.87;;
7657;SDS011;8462;53.156;8.220;2023-08-07T12:16:01;4.20;;;1.80;;
7657;SDS011;8462;53.156;8.220;2023-08-07T12:18:29;2.30;;;1.67;;
7657;SDS011;8462;53.156;8.220;2023-08-07T12:20:58;2.67;;;1.60;;
7657;SDS011;8462;53.156;8.220;2023-08-07T12:23:26;7.17;;;1.50;;
7657;SDS011;8462;53.156;8.220;2023-08-07T12:25:54;8.13;;;1.90;;
7657;SDS011;8462;53.156;8.220;2023-08-07T12:28:22;4.53;;;1.63;;
7657;SDS011;8462;53.156;8.220;2023-08-07T12:30:51;3.87;;;1.70;;
7657;SDS011;8462;53.156;8.220;2023-08-07T12:33:18;3.77;;;1.70;;
7657;SDS011;8462;53.156;8.220;2023-08-07T12:35:45;5.57;;;2.27;;
7657;SDS011;8462;53.156;8.220;2023-08-07T12:38:13;3.60;;;1.30;;
7657;SDS011;8462;53.156;8.220;2023-08-07T12:40:41;4.70;;;1.60;;
7657;SDS011;8462;53.156;8.220;2023-08-07T12:43:08;3.97;;;1.70;;
7657;SDS011;8462;53.156;8.220;2023-08-07T12:45:37;3.30;;;1.70;;
7657;SDS011;8462;53.156;8.220;2023-08-07T12:48:04;7.73;;;2.27;;
7657;SDS011;8462;53.156;8.220;2023-08-07T12:50:32;3.43;;;1.93;;
7657;SDS011;8462;53.156;8.220;2023-08-07T12:52:59;4.30;;;1.90;;
7657;SDS011;8462;53.156;8.220;2023-08-07T12:55:26;6.90;;;2.43;;
7657;SDS011;8462;53.156;8.220;2023-08-07T12:57:53;4.37;;;1.90;;
7657;SDS011;8462;53.156;8.220;2023-08-07T13:00:21;7.43;;;2.33;;
7657;SDS011;8462;53.156;8.220;2023-08-07T13:02:50;4.20;;;1.80;;
7657;SDS011;8462;53.156;8.220;2023-08-07T13:05:18;6.67;;;2.10;;
7657;SDS011;8462;53.156;8.220;2023-08-07T13:07:46;4.60;;;1.73;;
7657;SDS011;8462;53.156;8.220;2023-08-07T13:10:14;5.53;;;1.77;;
7657;SDS011;8462;53.156;8.220;2023-08-07T13:12:42;4.90;;;1.40;;
7657;SDS011;8462;53.156;8.220;2023-08-07T13:15:11;2.10;;;1.43;;
7657;SDS011;8462;53.156;8.220;2023-08-07T13:17:39;4.83;;;1.13;;
7657;SDS011;8462;53.156;8.220;2023-08-07T13:20:09;4.33;;;1.67;;
7657;SDS011;8462;53.156;8.220;2023-08-07T13:22:38;4.17;;;2.10;;
7657;SDS011;8462;53.156;8.220;2023-08-07T13:25:07;2.90;;;1.37;;
7657;SDS011;8462;53.156;8.220;2023-08-07T13:27:34;2.67;;;1.40;;
7657;SDS011;8462;53.156;8.220;2023-08-07T13:30:02;2.87;;;1.50;;
7657;SDS011;8462;53.156;8.220;2023-08-07T13:32:30;4.63;;;1.50;;
7657;SDS011;8462;53.156;8.220;2023-08-07T13:34:58;3.47;;;1.63;;
7657;SDS011;8462;53.156;8.220;2023-08-07T13:37:26;3.03;;;1.47;;
7657;SDS011;8462;53.156;8.220;2023-08-07T13:39:53;5.83;;;1.50;;
7657;SDS011;8462;53.156;8.220;2023-08-07T13:42:22;7.70;;;1.63;;
7657;SDS011;8462;53.156;8.220;2023-08-07T13:44:50;4.67;;;1.43;;
7657;SDS011;8462;53.156;8.220;2023-08-07T13:47:17;5.43;;;1.50;;
7657;SDS011;8462;53.156;8.220;2023-08-07T13:49:45;3.87;;;1.57;;
7657;SDS011;8462;53.156;8.220;2023-08-07T13:52:12;3.70;;;2.30;;
7657;SDS011;8462;53.156;8.220;2023-08-07T13:54:41;3.00;;;1.43;;
7657;SDS011;8462;53.156;8.220;2023-08-07T13:57:08;7.53;;;1.60;;
7657;SDS011;8462;53.156;8.220;2023-08-07T13:59:35;3.40;;;1.57;;
7657;SDS011;8462;53.156;8.220;2023-08-07T14:02:03;5.43;;;2.20;;
7657;SDS011;8462;53.156;8.220;2023-08-07T14:04:31;4.33;;;2.03;;
7657;SDS011;8462;53.156;8.220;2023-08-07T14:06:58;3.33;;;1.67;;
7657;SDS011;8462;53.156;8.220;2023-08-07T14:09:25;5.27;;;1.63;;
7657;SDS011;8462;53.156;8.220;2023-08-07T14:11:54;7.53;;;1.70;;
7657;SDS011;8462;53.156;8.220;2023-08-07T14:14:22;3.67;;;1.60;;
7657;SDS011;8462;53.156;8.220;2023-08-07T14:16:49;6.60;;;1.60;;
7657;SDS011;8462;53.156;8.220;2023-08-07T14:19:16;5.27;;;1.60;;
7657;SDS011;8462;53.156;8.220;2023-08-07T14:21:43;3.03;;;1.30;;
7657;SDS011;8462;53.156;8.220;2023-08-07T14:24:09;4.50;;;1.80;;
7657;SDS011;8462;53.156;8.220;2023-08-07T14:26:36;4.13;;;1.60;;
7657;SDS011;8462;53.156;8.220;2023-08-07T14:29:05;3.43;;;1.73;;
7657;SDS011;8462;53.156;8.220;2023-08-07T14:31:32;2.93;;;1.20;;
7657;SDS011;8462;53.156;8.220;2023-08-07T14:33:58;4.47;;;1.20;;
7657;SDS011;8462;53.156;8.220;2023-08-07T14:36:25;4.13;;;1.60;;
7657;SDS011;8462;53.156;8.220;2023-08-07T14:38:52;3.50;;;1.00;;
7657;SDS011;8462;53.156;8.220;2023-08-07T14:41:19;2.07;;;1.40;;
7657;SDS011;8462;53.156;8.220;2023-08-07T14:43:48;2.30;;;1.13;;
7657;SDS011;8462;53.156;8.220;2023-08-07T14:46:17;2.87;;;1.17;;
7657;SDS011;8462;53.156;8.220;2023-08-07T14:48:46;3.37;;;1.40;;
7657;SDS011;8462;53.156;8.220;2023-08-07T14:51:13;2.67;;;1.47;;
7657;SDS011;8462;53.156;8.220;2023-08-07T14:53:40;6.07;;;2.00;;
7657;SDS011;8462;53.156;8.220;2023-08-07T14:56:07;6.70;;;1.87;;
7657;SDS011;8462;53.156;8.220;2023-08-07T14:58:34;3.27;;;1.87;;
7657;SDS011;8462;53.156;8.220;2023-08-07T15:01:02;2.30;;;1.63;;
7657;SDS011;8462;53.156;8.220;2023-08-07T15:03:31;4.57;;;1.93;;
7657;SDS011;8462;53.156;8.220;2023-08-07T15:05:59;4.77;;;1.83;;
7657;SDS011;8462;53.156;8.220;2023-08-07T15:08:26;7.40;;;2.10;;
7657;SDS011;8462;53.156;8.220;2023-08-07T15:10:52;6.80;;;1.73;;
7657;SDS011;8462;53.156;8.220;2023-08-07T15:13:19;4.97;;;1.70;;
7657;SDS011;8462;53.156;8.220;2023-08-07T15:15:46;3.77;;;1.60;;
7657;SDS011;8462;53.156;8.220;2023-08-07T15:18:14;3.00;;;1.70;;
7657;SDS011;8462;53.156;8.220;2023-08-07T15:20:42;5.63;;;1.60;;